createdAt,value
2017-05-24T00:01:13.105Z,0
2017-05-24T00:02:26.642Z,0
2017-05-24T00:03:40.272Z,0
2017-05-24T00:04:53.897Z,0
2017-05-24T00:06:07.960Z,0
2017-05-24T00:07:21.839Z,0
2017-05-24T00:08:35.809Z,0
2017-05-24T00:09:49.718Z,0
2017-05-24T00:11:04.870Z,0
2017-05-24T00:12:18.839Z,0
2017-05-24T00:13:32.392Z,0
2017-05-24T00:14:46.425Z,0
2017-05-24T00:15:59.983Z,0
2017-05-24T00:17:13.546Z,0
2017-05-24T00:18:28.060Z,0
2017-05-24T00:19:41.680Z,0
2017-05-24T00:20:55.677Z,0
2017-05-24T00:22:09.562Z,0
2017-05-24T00:23:23.104Z,0
2017-05-24T00:24:37.019Z,0
2017-05-24T00:25:50.570Z,0
2017-05-24T00:27:04.147Z,0
2017-05-24T00:28:17.684Z,0
2017-05-24T00:29:31.271Z,0
2017-05-24T00:30:45.171Z,0
2017-05-24T00:31:58.733Z,0
2017-05-24T00:33:12.305Z,0
2017-05-24T00:34:26.244Z,0
2017-05-24T00:35:40.559Z,0
2017-05-24T00:36:54.472Z,0
2017-05-24T00:38:08.341Z,0
2017-05-24T00:39:21.925Z,0
2017-05-24T00:40:35.533Z,0
2017-05-24T00:41:49.416Z,0
2017-05-24T00:43:03.258Z,0
2017-05-24T00:44:16.820Z,0
2017-05-24T00:45:30.477Z,0
2017-05-24T00:46:44.346Z,0
2017-05-24T00:47:57.885Z,0
2017-05-24T00:49:11.917Z,0
2017-05-24T00:50:25.551Z,0
2017-05-24T00:51:39.158Z,0
2017-05-24T00:52:52.727Z,0
2017-05-24T00:54:06.282Z,0
2017-05-24T00:55:20.512Z,0
2017-05-24T00:56:34.307Z,0
2017-05-24T00:57:47.883Z,0
2017-05-24T00:59:01.448Z,0
2017-05-24T01:00:15.004Z,0
2017-05-24T01:01:29.273Z,0
2017-05-24T01:02:43.025Z,0
2017-05-24T01:03:56.606Z,0
2017-05-24T01:05:10.504Z,0
2017-05-24T01:06:24.080Z,0
2017-05-24T01:07:38.691Z,0
2017-05-24T01:08:52.396Z,0
2017-05-24T01:10:06.309Z,0
2017-05-24T01:11:19.848Z,0
2017-05-24T01:12:33.848Z,0
2017-05-24T01:13:48.395Z,0
2017-05-24T01:15:02.276Z,0
2017-05-24T01:16:15.883Z,0
2017-05-24T01:17:29.477Z,0
2017-05-24T01:18:43.043Z,0
2017-05-24T01:19:56.933Z,0
2017-05-24T01:21:10.804Z,0
2017-05-24T01:22:24.750Z,0
2017-05-24T01:23:38.318Z,0
2017-05-24T01:24:51.926Z,0
2017-05-24T01:26:05.857Z,0
2017-05-24T01:27:19.541Z,0
2017-05-24T01:28:33.164Z,0
2017-05-24T01:29:46.753Z,0
2017-05-24T01:31:00.342Z,0
2017-05-24T01:32:14.428Z,0
2017-05-24T01:33:28.389Z,0
2017-05-24T01:34:41.944Z,0
2017-05-24T01:35:55.495Z,0
2017-05-24T01:37:09.071Z,0
2017-05-24T01:38:23.198Z,0
2017-05-24T01:39:37.073Z,0
2017-05-24T01:40:50.624Z,0
2017-05-24T01:42:04.158Z,0
2017-05-24T01:43:17.710Z,0
2017-05-24T01:44:31.584Z,0
2017-05-24T01:45:45.197Z,0
2017-05-24T01:46:58.879Z,0
2017-05-24T01:48:12.434Z,0
2017-05-24T01:49:26.041Z,0
2017-05-24T01:50:39.895Z,0
2017-05-24T01:51:53.472Z,0
2017-05-24T01:53:06.980Z,0
2017-05-24T01:54:20.566Z,0
2017-05-24T01:55:34.241Z,0
2017-05-24T01:56:48.125Z,0
2017-05-24T01:58:01.707Z,0
2017-05-24T01:59:15.316Z,0
2017-05-24T02:00:28.909Z,0
2017-05-24T02:01:43.208Z,0
2017-05-24T02:02:57.404Z,0
2017-05-24T02:04:11.132Z,0
2017-05-24T02:05:25.047Z,0
2017-05-24T02:06:38.612Z,0
2017-05-24T02:07:52.173Z,0
2017-05-24T02:09:06.056Z,0
2017-05-24T02:10:20.090Z,0
2017-05-24T02:11:33.650Z,0
2017-05-24T02:12:47.250Z,0
2017-05-24T02:14:00.817Z,0
2017-05-24T02:15:14.683Z,0
2017-05-24T02:16:28.709Z,0
2017-05-24T02:17:42.575Z,0
2017-05-24T02:18:56.172Z,0
2017-05-24T02:20:09.724Z,0
2017-05-24T02:21:23.850Z,0
2017-05-24T02:22:37.423Z,0
2017-05-24T02:23:50.988Z,0
2017-05-24T02:25:05.049Z,0
2017-05-24T02:26:18.569Z,0
2017-05-24T02:27:32.900Z,0
2017-05-24T02:28:46.452Z,0
2017-05-24T02:30:00.014Z,0
2017-05-24T02:31:13.717Z,0
2017-05-24T02:32:27.300Z,0
2017-05-24T02:33:41.153Z,0
2017-05-24T02:34:54.716Z,0
2017-05-24T02:36:08.290Z,0
2017-05-24T02:37:22.204Z,0
2017-05-24T02:38:36.077Z,0
2017-05-24T02:39:50.103Z,0
2017-05-24T02:41:04.314Z,0
2017-05-24T02:42:18.421Z,0
2017-05-24T02:43:31.962Z,0
2017-05-24T02:44:45.834Z,0
2017-05-24T02:45:59.862Z,0
2017-05-24T02:47:13.442Z,0
2017-05-24T02:48:27.708Z,0
2017-05-24T02:49:41.255Z,0
2017-05-24T02:50:55.432Z,0
2017-05-24T02:52:09.725Z,0
2017-05-24T02:53:23.656Z,0
2017-05-24T02:54:37.433Z,0
2017-05-24T02:55:50.958Z,0
2017-05-24T02:57:05.196Z,0
2017-05-24T02:58:19.360Z,0
2017-05-24T02:59:32.919Z,0
2017-05-24T03:00:46.818Z,0
2017-05-24T03:02:00.678Z,0
2017-05-24T03:03:14.346Z,0
2017-05-24T03:04:28.260Z,0
2017-05-24T03:05:41.817Z,0
2017-05-24T03:06:55.554Z,0
2017-05-24T03:08:09.097Z,0
2017-05-24T03:09:22.676Z,0
2017-05-24T03:10:36.531Z,0
2017-05-24T03:11:50.180Z,0
2017-05-24T03:13:03.741Z,0
2017-05-24T03:14:17.604Z,0
2017-05-24T03:15:31.537Z,0
2017-05-24T03:16:45.467Z,0
2017-05-24T03:17:59.430Z,0
2017-05-24T03:19:13.391Z,0
2017-05-24T03:20:26.967Z,0
2017-05-24T03:21:40.751Z,0
2017-05-24T03:22:54.765Z,0
2017-05-24T03:24:08.658Z,5
2017-05-24T03:25:22.248Z,5
2017-05-24T03:26:35.799Z,5
2017-05-24T03:27:49.586Z,5
2017-05-24T03:29:03.486Z,5
2017-05-24T03:30:17.107Z,5
2017-05-24T03:31:30.726Z,5
2017-05-24T03:32:44.266Z,5
2017-05-24T03:33:57.959Z,10
2017-05-24T03:35:11.905Z,10
2017-05-24T03:36:25.923Z,10
2017-05-24T03:37:39.506Z,10
2017-05-24T03:38:53.219Z,10
2017-05-24T03:40:06.942Z,10
2017-05-24T03:41:21.009Z,15
2017-05-24T03:42:34.578Z,15
2017-05-24T03:43:48.894Z,15
2017-05-24T03:45:02.964Z,15
2017-05-24T03:46:16.591Z,15
2017-05-24T03:47:30.522Z,15
2017-05-24T03:48:44.464Z,20
2017-05-24T03:49:58.164Z,20
2017-05-24T03:51:11.704Z,20
2017-05-24T03:52:25.367Z,20
2017-05-24T03:53:39.290Z,25
2017-05-24T03:54:53.764Z,25
2017-05-24T03:56:07.410Z,25
2017-05-24T03:57:21.011Z,25
2017-05-24T03:58:34.656Z,25
2017-05-24T03:59:48.933Z,25
2017-05-24T04:01:02.640Z,30
2017-05-24T04:02:16.241Z,30
2017-05-24T04:03:30.132Z,35
2017-05-24T04:04:43.784Z,30
2017-05-24T04:05:57.709Z,30
2017-05-24T04:07:11.311Z,35
2017-05-24T04:08:24.909Z,35
2017-05-24T04:09:38.598Z,35
2017-05-24T04:10:52.539Z,35
2017-05-24T04:12:06.766Z,40
2017-05-24T04:13:20.400Z,40
2017-05-24T04:14:34.682Z,45
2017-05-24T04:15:48.343Z,50
2017-05-24T04:17:02.594Z,70
2017-05-24T04:18:16.565Z,65
2017-05-24T04:19:30.816Z,70
2017-05-24T04:20:44.470Z,125
2017-05-24T04:21:58.348Z,140
2017-05-24T04:23:18.988Z,125
2017-05-24T04:24:35.638Z,165
2017-05-24T04:25:50.286Z,170
2017-05-24T04:27:05.639Z,170
2017-05-24T04:28:35.921Z,175
2017-05-24T04:29:51.942Z,180
2017-05-24T04:31:09.215Z,180
2017-05-24T04:32:26.561Z,180
2017-05-24T04:33:41.951Z,180
2017-05-24T04:34:57.861Z,160
2017-05-24T04:36:13.692Z,150
2017-05-24T04:37:30.622Z,85
2017-05-24T04:38:48.612Z,90
2017-05-24T04:40:03.633Z,100
2017-05-24T04:41:18.326Z,110
2017-05-24T04:42:32.328Z,125
2017-05-24T04:43:46.379Z,225
2017-05-24T04:44:59.937Z,325
2017-05-24T04:46:13.916Z,300
2017-05-24T04:47:27.477Z,365
2017-05-24T04:48:41.861Z,375
2017-05-24T04:49:55.833Z,400
2017-05-24T04:51:09.793Z,410
2017-05-24T04:52:23.400Z,410
2017-05-24T04:53:37.016Z,400
2017-05-24T04:54:51.308Z,405
2017-05-24T04:56:04.903Z,415
2017-05-24T04:57:18.848Z,420
2017-05-24T04:58:32.769Z,460
2017-05-24T04:59:46.984Z,500
2017-05-24T05:01:00.971Z,530
2017-05-24T05:02:14.564Z,525
2017-05-24T05:03:28.282Z,540
2017-05-24T05:04:41.937Z,540
2017-05-24T05:05:55.560Z,560
2017-05-24T05:07:09.810Z,575
2017-05-24T05:08:23.527Z,595
2017-05-24T05:09:37.355Z,535
2017-05-24T05:10:51.016Z,460
2017-05-24T05:12:04.638Z,390
2017-05-24T05:13:18.563Z,550
2017-05-24T05:14:32.161Z,605
2017-05-24T05:15:45.766Z,520
2017-05-24T05:16:59.368Z,470
2017-05-24T05:18:13.057Z,630
2017-05-24T05:19:27.057Z,650
2017-05-24T05:20:40.711Z,715
2017-05-24T05:21:54.516Z,740
2017-05-24T05:23:08.170Z,740
2017-05-24T05:24:21.934Z,705
2017-05-24T05:25:36.216Z,630
2017-05-24T05:26:50.917Z,335
2017-05-24T05:28:05.049Z,295
2017-05-24T05:29:19.149Z,200
2017-05-24T05:30:32.822Z,195
2017-05-24T05:31:47.117Z,180
2017-05-24T05:33:00.690Z,180
2017-05-24T05:34:14.307Z,175
2017-05-24T05:35:28.326Z,170
2017-05-24T05:36:41.957Z,170
2017-05-24T05:37:56.251Z,155
2017-05-24T05:39:10.208Z,185
2017-05-24T05:40:23.828Z,200
2017-05-24T05:41:37.445Z,210
2017-05-24T05:42:51.162Z,210
2017-05-24T05:44:05.118Z,210
2017-05-24T05:45:19.115Z,190
2017-05-24T05:46:39.307Z,180
2017-05-24T05:47:53.540Z,190
2017-05-24T05:49:07.478Z,185
2017-05-24T05:50:21.446Z,195
2017-05-24T05:51:34.998Z,200
2017-05-24T05:52:48.603Z,205
2017-05-24T05:54:02.212Z,205
2017-05-24T05:55:15.949Z,210
2017-05-24T05:56:30.182Z,205
2017-05-24T05:57:44.205Z,195
2017-05-24T05:58:57.831Z,205
2017-05-24T06:00:11.517Z,215
2017-05-24T06:01:26.454Z,205
2017-05-24T06:02:40.678Z,205
2017-05-24T06:03:54.817Z,200
2017-05-24T06:05:09.366Z,195
2017-05-24T06:06:22.916Z,220
2017-05-24T06:12:03.145Z,160
2017-05-24T06:13:16.746Z,165
2017-05-24T06:14:30.372Z,155
2017-05-24T06:15:44.030Z,165
2017-05-24T06:16:58.249Z,190
2017-05-24T06:18:11.983Z,190
2017-05-24T06:19:25.622Z,150
2017-05-24T06:20:39.342Z,170
2017-05-24T06:21:52.937Z,195
2017-05-24T06:23:06.824Z,200
2017-05-24T06:24:20.548Z,205
2017-05-24T06:25:34.212Z,205
2017-05-24T06:26:47.975Z,205
2017-05-24T06:28:01.593Z,205
2017-05-24T06:29:15.786Z,205
2017-05-24T06:30:29.374Z,210
2017-05-24T06:31:43.020Z,205
2017-05-24T06:32:57.010Z,205
2017-05-24T06:34:11.042Z,205
2017-05-24T06:35:25.313Z,205
2017-05-24T06:36:38.915Z,205
2017-05-24T06:37:52.494Z,205
2017-05-24T06:39:06.134Z,205
2017-05-24T06:40:20.106Z,205
2017-05-24T06:41:35.100Z,205
2017-05-24T06:42:48.770Z,215
2017-05-24T06:44:02.398Z,210
2017-05-24T06:45:16.690Z,210
2017-05-24T06:46:30.272Z,210
2017-05-24T06:47:44.321Z,215
2017-05-24T06:48:57.918Z,220
2017-05-24T06:50:11.909Z,225
2017-05-24T06:51:25.651Z,220
2017-05-24T06:52:39.451Z,220
2017-05-24T06:53:53.748Z,225
2017-05-24T06:55:07.800Z,225
2017-05-24T06:56:21.722Z,220
2017-05-24T06:57:35.774Z,210
2017-05-24T06:58:49.393Z,215
2017-05-24T07:00:03.335Z,215
2017-05-24T07:01:17.009Z,215
2017-05-24T07:02:30.767Z,220
2017-05-24T07:03:44.481Z,225
2017-05-24T07:04:58.456Z,235
2017-05-24T07:06:12.397Z,240
2017-05-24T07:07:26.304Z,250
2017-05-24T07:08:40.237Z,250
2017-05-24T07:09:54.235Z,260
2017-05-24T07:11:07.906Z,275
2017-05-24T07:12:21.865Z,285
2017-05-24T07:13:35.917Z,275
2017-05-24T07:14:49.614Z,285
2017-05-24T07:16:03.963Z,285
2017-05-24T07:17:17.659Z,295
2017-05-24T07:18:32.087Z,295
2017-05-24T07:19:46.064Z,290
2017-05-24T07:20:59.746Z,300
2017-05-24T07:22:13.345Z,300
2017-05-24T07:23:27.100Z,295
2017-05-24T07:24:41.055Z,285
2017-05-24T07:25:54.692Z,305
2017-05-24T07:27:08.660Z,345
2017-05-24T07:28:22.288Z,340
2017-05-24T07:29:36.040Z,335
2017-05-24T07:30:49.715Z,345
2017-05-24T07:32:03.694Z,315
2017-05-24T07:33:17.303Z,255
2017-05-24T07:34:31.007Z,250
2017-05-24T07:35:45.038Z,260
2017-05-24T07:36:59.030Z,245
2017-05-24T07:38:13.169Z,235
2017-05-24T07:39:26.834Z,245
2017-05-24T07:40:40.891Z,250
2017-05-24T07:41:54.600Z,215
2017-05-24T07:43:08.977Z,240
2017-05-24T07:46:50.219Z,240
2017-05-24T07:48:04.024Z,235
2017-05-24T07:49:17.827Z,200
2017-05-24T07:50:31.756Z,210
2017-05-24T07:51:45.875Z,275
2017-05-24T07:53:06.353Z,300
2017-05-24T07:54:22.001Z,305
2017-05-24T07:55:36.157Z,250
2017-05-24T07:56:50.035Z,240
2017-05-24T07:58:03.910Z,230
2017-05-24T07:59:18.149Z,225
2017-05-24T08:00:32.084Z,220
2017-05-24T08:01:46.252Z,215
2017-05-24T08:03:00.105Z,245
2017-05-24T08:04:14.773Z,260
2017-05-24T08:05:29.635Z,245
2017-05-24T08:06:44.247Z,285
2017-05-24T08:07:58.022Z,330
2017-05-24T08:09:11.906Z,330
2017-05-24T08:10:25.719Z,330
2017-05-24T08:11:40.082Z,285
2017-05-24T08:12:53.898Z,270
2017-05-24T08:14:08.951Z,245
2017-05-24T08:15:23.475Z,275
2017-05-24T08:16:37.334Z,255
2017-05-24T08:17:51.833Z,230
2017-05-24T08:19:06.321Z,215
2017-05-24T08:20:20.420Z,195
2017-05-24T08:21:34.946Z,195
2017-05-24T08:22:48.820Z,230
2017-05-24T08:24:02.943Z,225
2017-05-24T08:25:16.762Z,260
2017-05-24T08:26:31.573Z,275
2017-05-24T08:27:45.364Z,270
2017-05-24T08:28:59.140Z,250
2017-05-24T08:30:14.607Z,305
2017-05-24T08:31:29.151Z,350
2017-05-24T08:32:43.498Z,360
2017-05-24T08:33:57.365Z,370
2017-05-24T08:35:11.579Z,340
2017-05-24T08:36:26.700Z,345
2017-05-24T08:37:40.565Z,370
2017-05-24T08:38:54.492Z,375
2017-05-24T08:40:08.305Z,325
2017-05-24T08:41:22.200Z,300
2017-05-24T08:42:36.412Z,300
2017-05-24T08:43:50.342Z,275
2017-05-24T08:45:04.081Z,275
2017-05-24T08:46:17.990Z,310
2017-05-24T08:47:31.769Z,325
2017-05-24T08:48:45.923Z,350
2017-05-24T08:49:59.854Z,370
2017-05-24T08:51:14.640Z,410
2017-05-24T08:52:28.717Z,425
2017-05-24T08:53:42.629Z,395
2017-05-24T08:54:56.880Z,405
2017-05-24T08:56:10.798Z,400
2017-05-24T08:57:24.762Z,405
2017-05-24T08:58:38.546Z,415
2017-05-24T08:59:52.415Z,400
2017-05-24T09:01:06.585Z,355
2017-05-24T09:02:20.734Z,345
2017-05-24T09:03:36.097Z,325
2017-05-24T09:04:50.265Z,310
2017-05-24T09:06:04.083Z,300
2017-05-24T09:07:18.393Z,290
2017-05-24T09:08:32.191Z,290
2017-05-24T09:09:46.402Z,285
2017-05-24T09:11:00.350Z,275
2017-05-24T09:12:14.790Z,270
2017-05-24T09:13:30.664Z,275
2017-05-24T09:14:44.806Z,270
2017-05-24T09:15:58.698Z,280
2017-05-24T09:17:12.577Z,290
2017-05-24T09:18:26.820Z,295
2017-05-24T09:19:41.400Z,290
2017-05-24T09:20:55.559Z,290
2017-05-24T09:22:09.524Z,295
2017-05-24T09:23:23.698Z,300
2017-05-24T09:24:37.458Z,285
2017-05-24T09:25:51.695Z,285
2017-05-24T09:27:05.864Z,285
2017-05-24T09:28:19.626Z,285
2017-05-24T09:29:33.926Z,305
2017-05-24T09:30:47.844Z,325
2017-05-24T09:32:02.002Z,355
2017-05-24T09:33:16.084Z,305
2017-05-24T09:34:31.785Z,300
2017-05-24T09:35:45.572Z,305
2017-05-24T09:36:59.455Z,350
2017-05-24T09:38:13.673Z,400
2017-05-24T09:39:27.624Z,380
2017-05-24T09:40:42.766Z,360
2017-05-24T09:41:56.506Z,330
2017-05-24T09:43:10.983Z,340
2017-05-24T09:44:24.779Z,330
2017-05-24T09:45:38.655Z,275
2017-05-24T09:46:52.729Z,295
2017-05-24T09:48:06.502Z,320
2017-05-24T09:49:20.985Z,295
2017-05-24T09:50:36.903Z,290
2017-05-24T09:51:50.680Z,275
2017-05-24T09:53:04.851Z,240
2017-05-24T09:54:18.940Z,230
2017-05-24T09:55:34.506Z,290
2017-05-24T09:56:48.213Z,340
2017-05-24T09:58:02.110Z,330
2017-05-24T09:59:16.295Z,300
2017-05-24T10:00:30.032Z,330
2017-05-24T10:01:43.905Z,360
2017-05-24T10:02:58.048Z,380
2017-05-24T10:04:11.804Z,385
2017-05-24T10:05:26.671Z,365
2017-05-24T10:06:40.465Z,330
2017-05-24T10:07:54.525Z,295
2017-05-24T10:09:08.607Z,280
2017-05-24T10:10:22.649Z,335
2017-05-24T10:11:36.820Z,345
2017-05-24T10:12:50.568Z,350
2017-05-24T10:14:04.340Z,340
2017-05-24T10:15:18.909Z,330
2017-05-24T10:16:33.007Z,290
2017-05-24T10:17:47.826Z,280
2017-05-24T10:19:01.681Z,310
2017-05-24T10:20:15.450Z,345
2017-05-24T10:21:29.561Z,320
2017-05-24T10:22:44.173Z,280
2017-05-24T10:23:58.396Z,255
2017-05-24T10:25:12.356Z,220
2017-05-24T10:26:26.471Z,215
2017-05-24T10:27:40.673Z,235
2017-05-24T10:28:54.508Z,190
2017-05-24T10:30:08.376Z,130
2017-05-24T10:31:23.292Z,110
2017-05-24T10:32:37.127Z,115
2017-05-24T10:33:51.198Z,120
2017-05-24T10:35:05.267Z,105
2017-05-24T10:36:19.154Z,85
2017-05-24T10:37:32.954Z,80
2017-05-24T10:38:47.447Z,90
2017-05-24T10:40:01.168Z,105
2017-05-24T10:41:14.957Z,110
2017-05-24T10:42:29.221Z,110
2017-05-24T10:43:42.999Z,125
2017-05-24T10:44:56.777Z,120
2017-05-24T10:46:10.550Z,110
2017-05-24T10:47:24.297Z,90
2017-05-24T10:48:38.484Z,80
2017-05-24T10:49:52.204Z,80
2017-05-24T10:51:06.472Z,80
2017-05-24T10:52:21.395Z,85
2017-05-24T10:53:35.196Z,95
2017-05-24T10:54:48.926Z,100
2017-05-24T10:56:02.667Z,100
2017-05-24T10:57:16.618Z,105
2017-05-24T10:58:30.359Z,115
2017-05-24T10:59:44.189Z,130
2017-05-24T11:00:58.244Z,165
2017-05-24T11:02:12.310Z,190
2017-05-24T11:03:26.217Z,230
2017-05-24T11:04:40.011Z,270
2017-05-24T11:05:53.758Z,240
2017-05-24T11:07:07.486Z,210
2017-05-24T11:08:21.222Z,280
2017-05-24T11:09:35.436Z,305
2017-05-24T11:10:49.448Z,265
2017-05-24T11:12:03.215Z,250
2017-05-24T11:13:16.956Z,265
2017-05-24T11:14:32.551Z,290
2017-05-24T11:15:46.634Z,315
2017-05-24T11:17:00.438Z,310
2017-05-24T11:18:14.167Z,310
2017-05-24T11:19:27.955Z,350
2017-05-24T11:20:41.828Z,340
2017-05-24T11:21:55.615Z,330
2017-05-24T11:23:09.971Z,360
2017-05-24T11:24:24.151Z,345
2017-05-24T11:25:37.897Z,290
2017-05-24T11:26:51.974Z,270
2017-05-24T11:28:05.861Z,265
2017-05-24T11:29:20.478Z,265
2017-05-24T11:30:34.456Z,240
2017-05-24T11:31:50.049Z,200
2017-05-24T11:33:04.526Z,190
2017-05-24T11:34:18.293Z,160
2017-05-24T11:35:32.644Z,140
2017-05-24T11:36:47.057Z,120
2017-05-24T11:38:00.850Z,105
2017-05-24T11:39:14.596Z,95
2017-05-24T11:40:28.430Z,90
2017-05-24T11:41:42.917Z,90
2017-05-24T11:42:56.822Z,90
2017-05-24T11:44:11.276Z,85
2017-05-24T11:45:25.453Z,80
2017-05-24T11:46:39.225Z,85
2017-05-24T11:47:54.287Z,85
2017-05-24T11:49:09.084Z,90
2017-05-24T11:50:22.897Z,105
2017-05-24T11:51:36.969Z,115
2017-05-24T11:52:50.732Z,125
2017-05-24T11:54:05.132Z,145
2017-05-24T11:55:19.329Z,180
2017-05-24T11:56:33.082Z,210
2017-05-24T11:57:47.201Z,225
2017-05-24T11:59:01.649Z,215
2017-05-24T12:00:16.357Z,210
2017-05-24T12:01:30.843Z,210
2017-05-24T12:02:44.650Z,210
2017-05-24T12:03:58.791Z,205
2017-05-24T12:05:12.581Z,185
2017-05-24T12:06:27.932Z,190
2017-05-24T12:07:44.154Z,170
2017-05-24T12:08:58.328Z,145
2017-05-24T12:10:12.185Z,135
2017-05-24T12:11:27.151Z,145
2017-05-24T12:12:44.286Z,130
2017-05-24T12:13:59.024Z,115
2017-05-24T12:15:13.855Z,120
2017-05-24T12:16:28.457Z,145
2017-05-24T12:17:42.238Z,150
2017-05-24T12:18:56.011Z,160
2017-05-24T12:20:11.062Z,170
2017-05-24T12:21:25.403Z,170
2017-05-24T12:22:39.177Z,165
2017-05-24T12:23:52.900Z,195
2017-05-24T12:25:06.657Z,235
2017-05-24T12:26:21.175Z,245
2017-05-24T12:27:35.578Z,210
2017-05-24T12:28:49.768Z,205
2017-05-24T12:30:04.187Z,220
2017-05-24T12:31:18.596Z,220
2017-05-24T12:32:32.438Z,185
2017-05-24T12:33:46.558Z,150
2017-05-24T12:35:00.708Z,135
2017-05-24T12:36:17.120Z,130
2017-05-24T12:37:31.188Z,120
2017-05-24T12:38:45.087Z,110
2017-05-24T12:39:58.850Z,105
2017-05-24T12:41:12.581Z,110
2017-05-24T12:42:26.411Z,115
2017-05-24T12:43:40.558Z,105
2017-05-24T12:44:54.321Z,85
2017-05-24T12:46:08.129Z,75
2017-05-24T12:47:22.328Z,70
2017-05-24T12:48:36.087Z,60
2017-05-24T12:49:50.537Z,60
2017-05-24T12:51:04.270Z,55
2017-05-24T12:52:18.003Z,50
2017-05-24T12:53:31.824Z,50
2017-05-24T12:54:45.905Z,55
2017-05-24T12:56:00.264Z,65
2017-05-24T12:57:14.039Z,70
2017-05-24T12:58:28.142Z,60
2017-05-24T12:59:42.479Z,60
2017-05-24T13:00:56.301Z,60
2017-05-24T13:02:10.346Z,60
2017-05-24T13:03:24.811Z,60
2017-05-24T13:04:38.972Z,60
2017-05-24T13:05:52.715Z,65
2017-05-24T13:07:06.528Z,60
2017-05-24T13:08:22.370Z,55
2017-05-24T13:09:37.210Z,55
2017-05-24T13:10:51.010Z,60
2017-05-24T13:12:05.220Z,70
2017-05-24T13:13:19.023Z,80
2017-05-24T13:14:33.445Z,75
2017-05-24T13:15:47.314Z,70
2017-05-24T13:17:01.116Z,70
2017-05-24T13:18:14.850Z,70
2017-05-24T13:19:28.737Z,75
2017-05-24T13:20:43.103Z,70
2017-05-24T13:21:57.454Z,75
2017-05-24T13:23:11.338Z,90
2017-05-24T13:24:25.751Z,75
2017-05-24T13:25:39.515Z,65
2017-05-24T13:26:53.911Z,60
2017-05-24T13:28:07.741Z,55
2017-05-24T13:29:21.991Z,55
2017-05-24T13:30:37.600Z,60
2017-05-24T13:31:51.824Z,70
2017-05-24T13:33:06.557Z,85
2017-05-24T13:34:20.648Z,100
2017-05-24T13:35:34.854Z,90
2017-05-24T13:36:48.903Z,80
2017-05-24T13:38:03.034Z,75
2017-05-24T13:39:17.091Z,70
2017-05-24T13:40:31.296Z,75
2017-05-24T13:41:45.113Z,95
2017-05-24T13:42:59.198Z,120
2017-05-24T13:44:12.959Z,125
2017-05-24T13:45:27.427Z,145
2017-05-24T13:46:41.225Z,130
2017-05-24T13:47:55.486Z,120
2017-05-24T13:49:09.563Z,145
2017-05-24T13:50:23.366Z,165
2017-05-24T13:51:37.556Z,145
2017-05-24T13:52:51.525Z,135
2017-05-24T13:54:05.315Z,120
2017-05-24T13:55:19.275Z,95
2017-05-24T13:56:33.513Z,80
2017-05-24T13:57:47.880Z,60
2017-05-24T13:59:01.701Z,55
2017-05-24T14:00:15.873Z,70
2017-05-24T14:01:29.689Z,90
2017-05-24T14:02:43.780Z,105
2017-05-24T14:03:58.832Z,120
2017-05-24T14:05:12.613Z,110
2017-05-24T14:06:26.408Z,100
2017-05-24T14:07:40.487Z,95
2017-05-24T14:08:54.968Z,110
2017-05-24T14:10:09.986Z,130
2017-05-24T14:11:23.778Z,140
2017-05-24T14:12:37.612Z,120
2017-05-24T14:13:51.859Z,115
2017-05-24T14:15:05.813Z,130
2017-05-24T14:16:20.217Z,155
2017-05-24T14:17:34.437Z,160
2017-05-24T14:18:48.541Z,140
2017-05-24T14:20:02.352Z,135
2017-05-24T14:21:16.356Z,160
2017-05-24T14:22:30.836Z,145
2017-05-24T14:23:44.897Z,110
2017-05-24T14:24:58.955Z,95
2017-05-24T14:26:12.682Z,100
2017-05-24T14:27:27.912Z,105
2017-05-24T14:28:42.306Z,120
2017-05-24T14:29:56.078Z,110
2017-05-24T14:31:09.826Z,115
2017-05-24T14:32:23.932Z,120
2017-05-24T14:33:37.788Z,115
2017-05-24T14:34:51.851Z,105
2017-05-24T14:36:05.985Z,115
2017-05-24T14:37:20.116Z,120
2017-05-24T14:38:33.969Z,120
2017-05-24T14:39:47.792Z,115
2017-05-24T14:41:09.482Z,100
2017-05-24T14:42:27.600Z,70
2017-05-24T14:43:41.766Z,70
2017-05-24T14:44:55.856Z,80
2017-05-24T14:46:10.028Z,85
2017-05-24T14:47:24.096Z,75
2017-05-24T14:48:37.948Z,80
2017-05-24T14:49:51.691Z,100
2017-05-24T14:51:05.957Z,90
2017-05-24T14:52:20.217Z,80
2017-05-24T14:53:36.393Z,85
2017-05-24T14:54:50.454Z,75
2017-05-24T14:56:05.339Z,50
2017-05-24T14:57:39.020Z,55
2017-05-24T14:58:53.456Z,45
2017-05-24T15:00:07.512Z,40
2017-05-24T15:01:21.650Z,40
2017-05-24T15:02:35.930Z,40
2017-05-24T15:03:50.469Z,35
2017-05-24T15:05:04.528Z,30
2017-05-24T15:06:18.301Z,25
2017-05-24T15:07:32.963Z,30
2017-05-24T15:08:47.944Z,45
2017-05-24T15:10:01.882Z,70
2017-05-24T15:11:17.410Z,105
2017-05-24T15:12:31.557Z,145
2017-05-24T15:13:45.673Z,165
2017-05-24T15:15:00.079Z,195
2017-05-24T15:16:15.221Z,190
2017-05-24T15:17:29.691Z,190
2017-05-24T15:18:43.842Z,145
2017-05-24T15:19:57.770Z,140
2017-05-24T15:21:11.527Z,140
2017-05-24T15:22:25.270Z,120
2017-05-24T15:23:39.308Z,115
2017-05-24T15:24:53.121Z,125
2017-05-24T15:26:07.212Z,115
2017-05-24T15:27:20.979Z,115
2017-05-24T15:28:35.747Z,100
2017-05-24T15:29:50.749Z,90
2017-05-24T15:31:05.779Z,75
2017-05-24T15:32:21.054Z,60
2017-05-24T15:33:40.324Z,50
2017-05-24T15:34:55.240Z,45
2017-05-24T15:36:10.311Z,40
2017-05-24T15:37:24.516Z,40
2017-05-24T15:38:39.381Z,35
2017-05-24T15:39:57.317Z,40
2017-05-24T15:41:13.494Z,60
2017-05-24T15:42:30.576Z,75
2017-05-24T15:43:44.704Z,65
2017-05-24T15:44:59.965Z,75
2017-05-24T15:46:13.702Z,95
2017-05-24T15:47:28.047Z,80
2017-05-24T15:48:42.438Z,70
2017-05-24T15:49:56.472Z,70
2017-05-24T15:51:11.399Z,75
2017-05-24T15:52:25.487Z,65
2017-05-24T15:53:39.622Z,45
2017-05-24T15:54:53.756Z,45
2017-05-24T15:56:09.164Z,35
2017-05-24T15:57:24.461Z,30
2017-05-24T15:58:39.663Z,35
2017-05-24T15:59:53.829Z,40
2017-05-24T16:01:07.933Z,35
2017-05-24T16:02:22.793Z,30
2017-05-24T16:03:36.550Z,30
2017-05-24T16:04:50.408Z,25
2017-05-24T16:06:04.891Z,20
2017-05-24T16:07:19.504Z,20
2017-05-24T16:08:34.221Z,20
2017-05-24T16:09:48.209Z,20
2017-05-24T16:11:02.165Z,20
2017-05-24T16:12:16.710Z,20
2017-05-24T16:13:32.018Z,15
2017-05-24T16:14:46.749Z,15
2017-05-24T16:16:00.614Z,15
2017-05-24T16:17:15.083Z,10
2017-05-24T16:18:28.914Z,10
2017-05-24T16:19:45.237Z,5
2017-05-24T16:20:59.016Z,5
2017-05-24T16:22:13.307Z,5
2017-05-24T16:23:27.489Z,10
2017-05-24T16:24:41.598Z,10
2017-05-24T16:25:56.432Z,5
2017-05-24T16:27:10.170Z,5
2017-05-24T16:28:24.441Z,5
2017-05-24T16:29:38.928Z,5
2017-05-24T16:30:52.779Z,5
2017-05-24T16:32:07.630Z,5
2017-05-24T16:33:22.062Z,5
2017-05-24T16:34:35.951Z,0
2017-05-24T16:35:49.707Z,5
2017-05-24T16:37:03.794Z,5
2017-05-24T16:38:18.628Z,10
2017-05-24T16:39:32.791Z,15
2017-05-24T16:40:46.757Z,30
2017-05-24T16:42:01.689Z,45
2017-05-24T16:43:16.022Z,55
2017-05-24T16:44:30.093Z,70
2017-05-24T16:45:43.882Z,70
2017-05-24T16:46:57.998Z,70
2017-05-24T16:48:12.261Z,75
2017-05-24T16:49:26.494Z,85
2017-05-24T16:50:40.799Z,90
2017-05-24T16:51:54.941Z,90
2017-05-24T16:53:08.674Z,90
2017-05-24T16:54:22.804Z,95
2017-05-24T16:55:37.477Z,95
2017-05-24T16:56:51.863Z,95
2017-05-24T16:58:06.227Z,110
2017-05-24T16:59:20.671Z,110
2017-05-24T17:00:35.268Z,110
2017-05-24T17:01:49.197Z,105
2017-05-24T17:03:03.760Z,95
2017-05-24T17:04:19.315Z,90
2017-05-24T17:05:33.699Z,85
2017-05-24T17:06:47.815Z,80
2017-05-24T17:08:01.971Z,80
2017-05-24T17:09:16.075Z,75
2017-05-24T17:10:30.601Z,75
2017-05-24T17:11:44.696Z,75
2017-05-24T17:12:59.872Z,75
2017-05-24T17:14:19.961Z,80
2017-05-24T17:15:34.432Z,80
2017-05-24T17:16:48.229Z,80
2017-05-24T17:18:02.685Z,85
2017-05-24T17:19:17.046Z,80
2017-05-24T17:20:31.906Z,75
2017-05-24T17:21:46.384Z,70
2017-05-24T17:23:01.169Z,60
2017-05-24T17:24:15.758Z,50
2017-05-24T17:25:29.776Z,40
2017-05-24T17:26:44.784Z,35
2017-05-24T17:27:59.217Z,30
2017-05-24T17:29:15.178Z,25
2017-05-24T17:30:29.934Z,25
2017-05-24T17:31:43.698Z,20
2017-05-24T17:32:57.518Z,20
2017-05-24T17:34:12.094Z,15